Time;durP1;ratioP1;P1;durP2;ratioP2;P2;SDS_P1;SDS_P2;PMS_P1;PMS_P2;Temp;Humidity;BMP_temperature;BMP_pressure;BME280_temperature;BME280_humidity;BME280_pressure;Samples;Min_cycle;Max_cycle;Signal;HPM_P1;HPM_P2
2022/03/09 00:01:38;;;;;;;10.57;7.72;;;;;;;1.16;56.02;100934.81;5026238;28;20060;-84
2022/03/09 00:04:08;;;;;;;12.60;7.78;;;;;;;1.09;56.15;100937.69;5026275;28;20105;-84
2022/03/09 00:06:37;;;;;;;12.77;8.32;;;;;;;1.08;56.51;100940.66;5030196;28;20057;-84
2022/03/09 00:09:04;;;;;;;12.48;7.80;;;;;;;1.04;55.58;100940.31;5020978;28;20054;-84
2022/03/09 00:11:32;;;;;;;11.18;7.38;;;;;;;0.96;56.01;100943.41;5031647;28;20417;-83
2022/03/09 00:14:02;;;;;;;12.00;7.53;;;;;;;0.97;55.90;100947.84;5040031;28;20054;-84
2022/03/09 00:16:30;;;;;;;;;;;;;;;0.95;56.10;100937.09;5036192;28;20061;-84
2022/03/09 00:18:57;;;;;;;11.27;7.07;;;;;;;0.95;55.37;100941.75;5022532;28;19921;-83
2022/03/09 00:21:24;;;;;;;10.02;6.70;;;;;;;0.97;55.18;100936.88;5021272;28;20049;-84
2022/03/09 00:23:53;;;;;;;11.13;7.43;;;;;;;0.98;55.38;100941.25;5021128;28;20060;-84
2022/03/09 00:26:20;;;;;;;12.32;7.75;;;;;;;0.92;56.89;100947.69;5030236;28;20053;-84
2022/03/09 00:28:49;;;;;;;11.23;8.07;;;;;;;0.93;56.91;100954.88;5039135;28;20054;-84
2022/03/09 00:31:17;;;;;;;12.63;7.55;;;;;;;0.91;56.62;100951.53;5039795;28;20049;-83
2022/03/09 00:33:44;;;;;;;13.20;7.75;;;;;;;0.91;56.92;100966.06;5020361;28;20061;-85
2022/03/09 00:36:11;;;;;;;11.55;7.60;;;;;;;0.89;57.06;100965.47;5023740;28;20049;-84
2022/03/09 00:38:39;;;;;;;12.27;8.48;;;;;;;0.90;56.92;100960.81;5039146;28;20057;-85
2022/03/09 00:41:10;;;;;;;14.32;8.40;;;;;;;0.89;57.26;100959.97;5034435;28;20051;-85
2022/03/09 00:43:37;;;;;;;13.43;8.52;;;;;;;0.89;57.26;100972.88;5033127;28;20045;-84
2022/03/09 00:46:05;;;;;;;11.95;8.07;;;;;;;0.87;57.47;100975.00;5039238;28;20053;-84
2022/03/09 00:48:32;;;;;;;12.43;8.23;;;;;;;0.87;57.27;100973.09;5037976;28;20496;-83
2022/03/09 00:51:00;;;;;;;10.65;7.72;;;;;;;0.72;57.84;100970.81;5039310;28;20166;-84
2022/03/09 00:53:30;;;;;;;13.07;8.88;;;;;;;0.69;57.49;100962.22;5024265;28;20053;-84
2022/03/09 00:55:57;;;;;;;;;;;;;;;0.49;58.45;100960.66;5034170;28;20053;-84
2022/03/09 00:58:26;;;;;;;10.38;7.65;;;;;;;0.61;57.32;100963.44;5038316;28;19921;-85
2022/03/09 01:00:53;;;;;;;13.60;8.20;;;;;;;0.61;57.47;100971.66;5039189;28;20053;-84
2022/03/09 01:03:25;;;;;;;10.27;7.72;;;;;;;0.63;57.60;100974.13;5038046;28;20050;-84
2022/03/09 01:05:53;;;;;;;13.63;8.73;;;;;;;0.63;57.35;100977.75;5036886;28;20072;-84
2022/03/09 01:08:20;;;;;;;14.75;8.93;;;;;;;0.65;57.87;100974.75;5020438;28;20050;-84
2022/03/09 01:10:48;;;;;;;12.85;8.48;;;;;;;0.66;57.94;100976.44;5018777;28;20064;-84
2022/03/09 01:13:15;;;;;;;12.75;8.02;;;;;;;0.65;57.61;100972.84;5028280;28;20041;-84
2022/03/09 01:15:44;;;;;;;12.48;8.57;;;;;;;0.62;58.02;100972.47;5038958;28;20061;-84
2022/03/09 01:18:12;;;;;;;13.13;8.93;;;;;;;0.66;57.84;100980.00;5035146;28;20049;-83
2022/03/09 01:20:39;;;;;;;12.65;8.35;;;;;;;0.64;57.74;100984.88;5038409;28;20060;-84
2022/03/09 01:23:06;;;;;;;13.70;9.00;;;;;;;0.64;57.67;100986.78;5037548;28;20049;-84
2022/03/09 01:25:34;;;;;;;12.95;8.55;;;;;;;0.66;58.00;100979.16;5037731;28;20401;-85
2022/03/09 01:28:02;;;;;;;14.77;8.93;;;;;;;0.64;57.82;100984.88;5037054;28;20045;-85
2022/03/09 01:30:29;;;;;;;12.65;8.13;;;;;;;0.60;57.93;100973.53;5038988;28;20049;-85
2022/03/09 01:32:58;;;;;;;15.85;8.63;;;;;;;0.40;58.39;100971.13;5031842;28;20053;-84
2022/03/09 01:35:26;;;;;;;14.77;8.65;;;;;;;0.29;58.49;100969.19;5036240;28;20064;-83
2022/03/09 01:37:56;;;;;;;16.02;10.30;;;;;;;0.37;58.11;100962.53;5019847;28;20532;-84
2022/03/09 01:40:23;;;;;;;16.55;10.75;;;;;;;0.43;57.46;100961.59;5018021;28;20486;-84
2022/03/09 01:42:50;;;;;;;13.10;8.55;;;;;;;0.43;57.91;100967.09;5017684;28;20053;-85
2022/03/09 01:45:20;;;;;;;13.77;8.90;;;;;;;0.40;58.53;100968.38;5028440;28;20057;-84
2022/03/09 01:47:48;;;;;;;14.98;8.98;;;;;;;0.40;58.44;100967.56;5017544;28;20060;-84
2022/03/09 01:50:17;;;;;;;16.08;10.05;;;;;;;0.42;58.81;100959.09;5026931;28;20045;-84
2022/03/09 01:52:45;;;;;;;16.00;10.13;;;;;;;0.43;58.52;100960.78;5038447;28;20045;-85
2022/03/09 01:55:13;;;;;;;17.90;10.65;;;;;;;0.36;58.37;100956.22;5037028;28;20053;-84
2022/03/09 01:57:41;;;;;;;16.77;10.00;;;;;;;0.36;58.67;100955.41;5036246;28;20076;-84
2022/03/09 02:00:11;;;;;;;17.13;9.82;;;;;;;0.39;58.59;100961.22;5036528;28;20041;-84
2022/03/09 02:02:39;;;;;;;18.10;10.50;;;;;;;0.36;59.04;100961.72;5036784;28;20054;-84
2022/03/09 02:05:07;;;;;;;16.40;9.48;;;;;;;0.39;58.77;100960.41;5029178;28;20034;-84
2022/03/09 02:10:23;;;;;;;15.18;9.35;;;;;;;0.29;58.69;100958.22;5017327;28;20081;-83
2022/03/09 02:12:51;;;;;;;16.45;9.18;;;;;;;0.28;58.62;100959.31;5026295;28;20045;-83
2022/03/09 02:15:20;;;;;;;13.52;8.55;;;;;;;0.13;58.50;100959.72;5035853;28;20053;-84
2022/03/09 02:17:48;;;;;;;13.95;7.68;;;;;;;0.14;57.92;100960.56;5035743;28;20045;-84
2022/03/09 02:20:15;;;;;;;9.60;6.93;;;;;;;0.17;57.94;100962.84;5032319;28;20056;-85
2022/03/09 02:22:45;;;;;;;9.75;6.50;;;;;;;0.18;57.62;100967.25;5020075;28;20046;-85
2022/03/09 02:25:14;;;;;;;13.43;8.25;;;;;;;0.15;58.58;100959.50;5020976;28;20053;-85
2022/03/09 02:27:43;;;;;;;14.57;8.48;;;;;;;0.18;58.41;100948.06;5022205;28;20463;-85
2022/03/09 02:30:13;;;;;;;15.17;8.67;;;;;;;0.22;58.42;100946.53;5039046;28;20072;-86
2022/03/09 02:32:41;;;;;;;14.63;7.63;;;;;;;0.15;58.36;100943.06;5039165;28;20046;-86
2022/03/09 02:35:14;;;;;;;11.10;7.28;;;;;;;0.20;58.34;100948.69;5038178;28;20056;-86
2022/03/09 02:37:44;;;;;;;13.88;8.57;;;;;;;0.19;58.58;100953.31;5020337;28;20054;-86
2022/03/09 02:40:14;;;;;;;13.13;8.68;;;;;;;0.18;58.88;100956.28;5018797;28;20064;-86
2022/03/09 02:42:42;;;;;;;12.95;9.52;;;;;;;0.13;59.33;100964.38;5019316;28;20053;-84
2022/03/09 02:45:11;;;;;;;15.75;9.05;;;;;;;0.13;59.08;100961.66;5038411;28;20125;-85
2022/03/09 02:47:39;;;;;;;13.88;9.65;;;;;;;0.03;59.79;100958.63;5038300;28;20167;-85
2022/03/09 02:50:08;;;;;;;14.45;9.85;;;;;;;0.03;59.86;100961.38;5023306;28;20231;-85
2022/03/09 02:52:38;;;;;;;14.55;9.75;;;;;;;0.06;59.64;100958.97;5036151;28;20068;-85
2022/03/09 02:55:08;;;;;;;13.60;9.57;;;;;;;0.08;59.79;100966.97;5038399;28;20057;-86
2022/03/09 02:57:36;;;;;;;12.95;9.35;;;;;;;0.12;59.54;100962.69;5039069;28;20053;-85
2022/03/09 03:00:04;;;;;;;12.02;8.07;;;;;;;0.16;59.43;100972.13;5038770;28;20058;-86
2022/03/09 03:02:31;;;;;;;13.20;8.35;;;;;;;0.17;59.30;100968.34;5032670;28;20041;-84
2022/03/09 03:04:59;;;;;;;12.60;8.40;;;;;;;0.06;59.34;100964.47;5040820;28;20053;-83
2022/03/09 03:07:26;;;;;;;13.60;9.70;;;;;;;0.09;59.32;100965.91;5031730;28;20054;-84
2022/03/09 03:09:55;;;;;;;10.93;7.72;;;;;;;0.09;58.79;100954.97;5026190;28;20466;-85
2022/03/09 03:12:24;;;;;;;10.85;7.93;;;;;;;0.09;59.07;100955.78;5033002;28;20050;-84
2022/03/09 03:14:51;;;;;;;12.50;8.23;;;;;;;0.08;59.03;100959.59;5033186;28;20512;-83
2022/03/09 03:17:19;;;;;;;12.45;7.72;;;;;;;0.08;58.67;100958.75;5039534;28;20057;-85
2022/03/09 03:19:46;;;;;;;14.18;9.05;;;;;;;0.06;59.27;100958.16;5030357;28;20057;-85
2022/03/09 03:22:13;;;;;;;12.15;8.57;;;;;;;0.01;59.23;100958.84;5021241;28;20054;-85
2022/03/09 03:24:41;;;;;;;13.02;9.07;;;;;;;0.03;58.91;100961.38;5039661;28;20104;-84
2022/03/09 03:27:08;;;;;;;10.75;7.78;;;;;;;0.02;58.93;100957.78;5039425;28;20056;-84
2022/03/09 03:29:37;;;;;;;12.73;8.32;;;;;;;0.01;59.00;100958.03;5038615;28;20056;-84
2022/03/09 03:32:05;;;;;;;14.45;8.95;;;;;;;0.01;58.97;100958.03;5038217;28;20409;-84
2022/03/09 03:34:33;;;;;;;14.18;7.93;;;;;;;0.00;58.78;100962.69;5039570;28;20053;-84
2022/03/09 03:37:01;;;;;;;12.70;8.20;;;;;;;-0.02;58.79;100965.63;5030159;28;20053;-83
2022/03/09 03:39:28;;;;;;;11.98;7.90;;;;;;;-0.07;58.72;100961.91;5034835;28;20053;-84
2022/03/09 03:41:56;;;;;;;13.65;8.65;;;;;;;-0.23;59.31;100950.56;5040543;28;20050;-84
2022/03/09 03:44:23;;;;;;;13.20;8.18;;;;;;;-0.29;59.43;100958.84;5035527;28;20045;-83
2022/03/09 03:46:52;;;;;;;11.45;8.07;;;;;;;-0.29;59.14;100954.22;5038269;28;20056;-84
2022/03/09 03:49:19;;;;;;;12.02;7.68;;;;;;;-0.25;58.71;100954.59;5045289;28;20053;-84
2022/03/09 03:51:47;;;;;;;10.90;7.53;;;;;;;-0.20;59.12;100957.47;5043696;28;20056;-84
2022/03/09 03:54:14;;;;;;;12.25;7.95;;;;;;;-0.23;58.82;100953.28;5043679;28;20528;-84
2022/03/09 03:56:42;;;;;;;11.43;8.13;;;;;;;-0.21;58.67;100953.91;5041007;28;20458;-83
2022/03/09 03:59:12;;;;;;;13.73;8.75;;;;;;;-0.25;58.77;100954.59;5028858;28;20061;-83
2022/03/09 04:01:39;;;;;;;11.57;7.80;;;;;;;-0.25;58.96;100960.88;5041359;28;20060;-85
2022/03/09 04:04:08;;;;;;;11.55;7.93;;;;;;;-0.29;59.00;100953.38;5041129;28;20049;-84
2022/03/09 04:06:36;;;;;;;12.77;8.25;;;;;;;-0.28;59.14;100955.03;5040831;28;20054;-84
2022/03/09 04:09:04;;;;;;;13.15;8.65;;;;;;;-0.28;59.05;100955.88;5033001;28;20045;-85
2022/03/09 04:11:33;;;;;;;12.10;7.38;;;;;;;-0.31;59.15;100950.88;5020965;28;20061;-84
2022/03/09 04:14:00;;;;;;;15.68;7.90;;;;;;;-0.31;58.82;100948.13;5022591;28;20056;-83
2022/03/09 04:16:28;;;;;;;15.05;9.20;;;;;;;-0.30;59.28;100954.44;5038267;28;20489;-84
2022/03/09 04:18:56;;;;;;;12.02;7.88;;;;;;;-0.30;59.45;100954.44;5020931;28;20072;-84
2022/03/09 04:21:25;;;;;;;12.30;8.65;;;;;;;-0.41;59.86;100940.44;5020036;28;20050;-85
2022/03/09 04:23:55;;;;;;;12.35;7.85;;;;;;;-0.39;59.70;100942.13;5033904;28;20053;-84
2022/03/09 04:26:22;;;;;;;14.90;8.20;;;;;;;-0.40;59.23;100946.75;5033897;28;20057;-86
2022/03/09 04:28:49;;;;;;;14.68;8.70;;;;;;;-0.44;59.20;100946.41;5024951;28;20479;-83
2022/03/09 04:31:17;;;;;;;11.90;7.93;;;;;;;-0.44;59.22;100943.66;5039396;28;20406;-84
2022/03/09 04:33:46;;;;;;;10.88;7.95;;;;;;;-0.43;59.33;100949.97;5040270;28;20069;-84
2022/03/09 04:36:14;;;;;;;13.35;8.32;;;;;;;-0.41;59.33;100945.91;5034471;28;20050;-84
2022/03/09 04:38:42;;;;;;;15.13;9.55;;;;;;;-0.44;59.72;100954.59;5019946;28;20054;-85
2022/03/09 04:41:10;;;;;;;14.68;10.10;;;;;;;-0.43;59.99;100952.69;5019833;28;20164;-84
2022/03/09 04:43:38;;;;;;;12.70;7.82;;;;;;;-0.46;60.13;100954.00;5020953;28;20483;-85
2022/03/09 04:46:05;;;;;;;10.45;7.18;;;;;;;-0.45;59.85;100947.44;5038628;28;20072;-84
2022/03/09 04:48:32;;;;;;;11.10;7.68;;;;;;;-0.46;59.61;100950.44;5040264;28;20056;-85
2022/03/09 04:51:04;;;;;;;12.90;9.25;;;;;;;-0.49;59.76;100954.44;5039611;28;20478;-84
2022/03/09 04:53:32;;;;;;;12.07;7.78;;;;;;;-0.49;59.27;100948.97;5040233;28;20053;-84
2022/03/09 04:56:01;;;;;;;11.18;7.60;;;;;;;-0.50;59.47;100952.78;5036963;28;20057;-85
2022/03/09 04:58:28;;;;;;;14.27;9.52;;;;;;;-0.53;59.37;100966.91;5038700;28;20082;-84
2022/03/09 05:00:58;;;;;;;14.30;8.25;;;;;;;-0.52;60.03;100960.38;5032904;28;20411;-85
2022/03/09 05:03:25;;;;;;;14.75;9.82;;;;;;;-0.54;60.41;100957.03;5020297;28;20058;-85
2022/03/09 05:06:05;;;;;;;14.68;8.52;;;;;;;-0.57;60.53;100952.00;5032191;28;20049;-85
2022/03/09 05:08:33;;;;;;;12.65;8.77;;;;;;;-0.57;60.69;100959.41;5049928;28;20057;-85
2022/03/09 05:11:02;;;;;;;13.70;8.32;;;;;;;-0.57;60.60;100957.47;5038187;28;20026;-83
2022/03/09 05:13:36;;;;;;;10.85;7.40;;;;;;;-0.60;60.16;100965.34;5034885;28;20050;-84
2022/03/09 05:16:05;;;;;;;14.32;8.80;;;;;;;-0.69;60.19;100964.81;5034690;28;20053;-84
2022/03/09 05:18:37;;;;;;;12.32;8.00;;;;;;;-0.71;60.21;100956.00;5032472;28;20053;-85
2022/03/09 05:21:04;;;;;;;13.85;8.88;;;;;;;-0.74;60.54;100967.38;5020334;28;20058;-85
2022/03/09 05:23:32;;;;;;;13.50;9.55;;;;;;;-0.74;60.41;100965.47;5020998;28;20061;-84
2022/03/09 05:25:59;;;;;;;14.18;9.05;;;;;;;-0.74;61.07;100962.72;5018175;28;20049;-84
2022/03/09 05:28:28;;;;;;;15.15;8.15;;;;;;;-0.74;61.06;100964.63;5023779;28;20500;-84
2022/03/09 05:30:55;;;;;;;11.93;7.90;;;;;;;-0.72;60.57;100965.25;5036415;28;20249;-85
2022/03/09 05:33:22;;;;;;;12.13;8.18;;;;;;;-0.72;60.35;100967.97;5018620;28;20046;-85
2022/03/09 05:35:50;;;;;;;12.80;8.77;;;;;;;-0.74;60.46;100962.72;5018174;28;20054;-84
2022/03/09 05:38:17;;;;;;;12.23;8.13;;;;;;;-0.78;60.28;100966.16;5025073;28;20414;-84
2022/03/09 05:40:44;;;;;;;12.10;8.20;;;;;;;-0.78;59.99;100966.16;5017679;28;20383;-84
2022/03/09 05:43:12;;;;;;;9.85;7.70;;;;;;;-0.78;60.00;100968.88;5017485;28;20064;-85
2022/03/09 05:45:40;;;;;;;11.13;7.35;;;;;;;-0.80;59.72;100984.69;5028173;28;20053;-84
2022/03/09 05:48:08;;;;;;;13.18;8.73;;;;;;;-0.80;59.92;100979.22;5034982;28;20501;-84
2022/03/09 05:50:36;;;;;;;16.20;9.50;;;;;;;-0.79;59.99;100987.22;5036419;28;20049;-83
2022/03/09 05:53:03;;;;;;;13.25;8.48;;;;;;;-0.82;60.39;100998.56;5036907;28;20056;-86
2022/03/09 05:55:31;;;;;;;12.13;8.52;;;;;;;-0.79;60.57;101000.06;5034109;28;20474;-85
2022/03/09 05:57:58;;;;;;;14.95;8.73;;;;;;;-0.78;60.71;100996.25;5036957;28;20500;-85
2022/03/09 06:00:26;;;;;;;13.32;9.40;;;;;;;-0.77;60.69;101011.59;5032433;28;20267;-86
2022/03/09 06:02:54;;;;;;;14.80;9.02;;;;;;;-0.79;60.81;101016.47;5017060;28;20057;-85
2022/03/09 06:05:22;;;;;;;15.25;9.15;;;;;;;-0.73;60.61;101018.28;5027076;28;20054;-85
2022/03/09 06:07:49;;;;;;;12.68;9.13;;;;;;;-0.72;60.12;101012.56;5036267;28;20059;-85
2022/03/09 06:10:17;;;;;;;13.80;8.48;;;;;;;-0.81;60.63;101013.94;5033747;28;20049;-84
2022/03/09 06:12:44;;;;;;;11.63;7.97;;;;;;;-0.73;60.47;101012.81;5028253;28;20073;-84
2022/03/09 06:15:12;;;;;;;15.13;8.95;;;;;;;-0.69;60.06;101014.88;5032990;28;20057;-85
2022/03/09 06:17:44;;;;;;;14.25;7.88;;;;;;;-0.69;60.28;101019.53;5036670;28;20470;-84
2022/03/09 06:20:16;;;;;;;12.48;8.20;;;;;;;-0.69;60.24;101020.34;5037712;28;20066;-85
2022/03/09 06:22:44;;;;;;;17.73;9.20;;;;;;;-0.67;60.03;101014.66;5032076;28;20054;-85
2022/03/09 06:25:14;;;;;;;13.52;9.20;;;;;;;-0.69;60.59;101017.63;5028948;28;20072;-84
2022/03/09 06:27:41;;;;;;;;;;;;;;;-0.65;60.07;101015.25;5035063;28;20049;-84
2022/03/09 06:30:10;;;;;;;15.93;9.77;;;;;;;-0.62;59.76;101014.81;5036342;28;19921;-83
2022/03/09 06:32:38;;;;;;;16.10;9.98;;;;;;;-0.60;59.41;101017.31;5035925;28;20060;-83
2022/03/09 06:35:07;;;;;;;16.88;10.05;;;;;;;-0.53;59.46;101012.59;5034735;28;20057;-83
2022/03/09 06:37:36;;;;;;;15.52;9.80;;;;;;;-0.22;59.77;101008.88;5035695;28;20065;-84
2022/03/09 06:40:04;;;;;;;16.30;10.47;;;;;;;0.48;58.93;101008.31;5036045;28;20050;-84
2022/03/09 06:42:32;;;;;;;13.65;9.13;;;;;;;1.35;56.59;101004.13;5028499;28;20050;-84
2022/03/09 06:45:01;;;;;;;14.57;8.65;;;;;;;2.21;53.93;100998.75;5032574;28;20045;-83
2022/03/09 06:47:29;;;;;;;12.15;8.63;;;;;;;3.04;51.04;101001.81;5036395;28;20060;-84
2022/03/09 06:49:56;;;;;;;15.75;8.50;;;;;;;3.82;49.11;101007.31;5037006;28;20195;-85
2022/03/09 06:52:23;;;;;;;14.82;8.23;;;;;;;4.66;47.32;101004.13;5035147;28;20053;-86
2022/03/09 06:54:52;;;;;;;14.48;8.65;;;;;;;5.48;45.36;101001.13;5041051;28;20418;-81
2022/03/09 06:57:20;;;;;;;13.75;8.57;;;;;;;6.38;44.74;101002.91;5045008;28;20056;-82
2022/03/09 06:59:49;;;;;;;11.65;8.43;;;;;;;7.09;43.05;100997.41;5039413;28;20055;-82
2022/03/09 07:02:16;;;;;;;13.27;9.00;;;;;;;8.14;41.19;100995.72;5023162;28;20121;-81
2022/03/09 07:04:44;;;;;;;11.90;8.82;;;;;;;9.13;38.89;100991.19;5023011;28;20439;-84
2022/03/09 07:07:12;;;;;;;14.98;9.55;;;;;;;9.96;37.32;100997.53;5021591;28;20053;-84
2022/03/09 07:09:39;;;;;;;12.20;8.60;;;;;;;10.82;35.68;100994.66;5039778;28;20052;-84
2022/03/09 07:12:09;;;;;;;10.07;8.30;;;;;;;11.73;34.11;100996.94;5028465;28;20396;-83
2022/03/09 07:14:37;;;;;;;13.85;8.90;;;;;;;12.65;32.47;100993.31;5024286;28;20054;-82
2022/03/09 07:17:05;;;;;;;16.88;9.20;;;;;;;13.42;30.49;100988.59;5041213;28;20069;-83
2022/03/09 07:19:32;;;;;;;11.18;8.93;;;;;;;14.17;29.45;100989.56;5042810;28;20138;-82
2022/03/09 07:21:59;;;;;;;13.02;9.30;;;;;;;14.82;27.90;100987.84;5038283;28;20056;-82
2022/03/09 07:24:27;;;;;;;11.88;8.77;;;;;;;15.45;27.70;100978.97;5045242;28;20064;-81
2022/03/09 07:26:56;;;;;;;10.38;9.05;;;;;;;16.07;26.27;100981.22;5043745;28;20065;-80
2022/03/09 07:29:25;;;;;;;12.15;9.20;;;;;;;16.83;25.14;100985.00;5042545;28;20054;-80
2022/03/09 07:31:53;;;;;;;11.63;8.52;;;;;;;17.16;24.31;100981.41;5030706;28;20053;-81
2022/03/09 07:34:22;;;;;;;9.47;7.67;;;;;;;17.72;23.53;100978.91;5040818;28;20045;-81
2022/03/09 07:36:50;;;;;;;10.80;7.85;;;;;;;18.25;22.95;100976.25;5042245;28;20068;-79
2022/03/09 07:39:19;;;;;;;9.45;8.35;;;;;;;18.81;22.25;100978.38;5034468;28;20053;-79
2022/03/09 07:41:46;;;;;;;10.07;8.35;;;;;;;19.09;21.72;100980.38;5037861;28;20057;-82
2022/03/09 07:44:15;;;;;;;10.23;8.63;;;;;;;19.56;21.36;100971.16;5047050;28;20053;-82
2022/03/09 07:46:45;;;;;;;12.70;9.68;;;;;;;20.21;20.81;100965.13;5048090;28;20060;-80
2022/03/09 07:49:13;;;;;;;15.07;9.40;;;;;;;20.58;20.43;100965.59;5043840;28;20045;-81
2022/03/09 07:51:40;;;;;;;13.48;9.35;;;;;;;20.95;20.16;100975.66;5051754;28;20524;-82
2022/03/09 07:54:13;;;;;;;10.30;8.30;;;;;;;21.52;19.48;100968.28;5041082;28;20486;-82
2022/03/09 07:56:41;;;;;;;10.70;8.15;;;;;;;21.97;19.07;100974.34;5049554;28;20497;-82
2022/03/09 07:59:11;;;;;;;10.32;8.38;;;;;;;22.49;18.26;100973.53;5030898;28;20056;-81
2022/03/09 08:01:41;;;;;;;9.63;8.43;;;;;;;22.74;18.36;100973.06;5032828;28;20061;-81
2022/03/09 08:04:10;;;;;;;9.88;8.65;;;;;;;22.90;17.92;100975.69;5033074;28;20061;-83
2022/03/09 08:06:38;;;;;;;11.40;8.82;;;;;;;23.64;17.15;100986.28;5026824;28;20050;-81
2022/03/09 08:09:06;;;;;;;11.05;8.48;;;;;;;24.30;16.72;100986.44;5027764;28;20046;-81
2022/03/09 08:11:33;;;;;;;10.10;8.35;;;;;;;24.90;16.66;100981.50;5037648;28;20045;-82
2022/03/09 08:14:00;;;;;;;7.80;7.00;;;;;;;25.48;15.42;100983.34;5035198;28;20058;-83
2022/03/09 08:16:28;;;;;;;7.53;6.53;;;;;;;26.08;15.37;100986.66;5040246;28;20056;-81
2022/03/09 08:18:56;;;;;;;10.70;7.50;;;;;;;26.75;14.64;100992.69;5036662;28;20414;-81
2022/03/09 08:21:24;;;;;;;12.02;7.97;;;;;;;27.54;14.37;100987.41;5039042;28;20445;-82
2022/03/09 08:23:52;;;;;;;10.35;8.43;;;;;;;27.78;14.14;100988.44;5039877;28;20054;-82
2022/03/09 08:26:19;;;;;;;10.05;8.13;;;;;;;28.53;13.86;100979.22;5039576;28;20057;-82
2022/03/09 08:28:46;;;;;;;9.27;7.45;;;;;;;29.09;13.41;100983.88;5031797;28;20052;-81
2022/03/09 08:31:14;;;;;;;12.80;8.02;;;;;;;29.35;13.22;100985.19;5040066;28;20378;-80
2022/03/09 08:33:42;;;;;;;12.13;7.57;;;;;;;29.62;12.97;100982.31;5041453;28;20060;-81
2022/03/09 08:36:11;;;;;;;10.60;7.90;;;;;;;30.30;12.54;100981.22;5040878;28;20049;-82
2022/03/09 08:38:40;;;;;;;7.05;5.85;;;;;;;29.94;10.76;100981.00;5040498;28;20498;-81
2022/03/09 08:41:07;;;;;;;11.18;8.32;;;;;;;30.90;11.77;100986.25;5041555;28;20057;-82
2022/03/09 08:43:35;;;;;;;9.18;6.97;;;;;;;31.22;11.51;100981.84;5041785;28;20057;-82
2022/03/09 08:46:03;;;;;;;9.43;6.32;;;;;;;31.88;10.93;100983.59;5042438;28;20053;-81
2022/03/09 08:48:30;;;;;;;10.23;7.00;;;;;;;32.46;11.36;100982.09;5042856;28;20046;-81
2022/03/09 08:50:57;;;;;;;8.60;6.70;;;;;;;32.09;11.63;100981.47;5042137;28;20056;-81
2022/03/09 08:53:24;;;;;;;9.15;6.68;;;;;;;32.71;11.75;100979.34;5040219;28;20053;-81
2022/03/09 08:55:53;;;;;;;9.27;7.38;;;;;;;32.72;11.45;100977.28;5038418;28;20064;-82
2022/03/09 08:58:21;;;;;;;8.43;6.63;;;;;;;33.09;11.16;100972.09;5040015;28;20049;-81
2022/03/09 09:00:50;;;;;;;7.53;6.60;;;;;;;33.40;10.69;100983.91;5030384;28;20056;-82
2022/03/09 09:03:17;;;;;;;6.30;5.80;;;;;;;33.68;10.34;100964.88;5039666;28;20049;-82
2022/03/09 09:05:45;;;;;;;6.93;5.95;;;;;;;34.09;9.04;100968.03;5040139;28;20045;-81
2022/03/09 09:08:13;;;;;;;6.93;6.10;;;;;;;34.23;9.79;100967.56;5039328;28;20060;-82
2022/03/09 09:10:40;;;;;;;6.78;6.05;;;;;;;34.93;8.60;100970.41;5045668;28;20045;-82
2022/03/09 09:13:10;;;;;;;6.35;5.75;;;;;;;35.38;8.50;100966.16;5040308;28;20053;-82
2022/03/09 09:15:38;;;;;;;6.45;5.40;;;;;;;35.44;8.96;100961.34;5039352;28;20057;-82
2022/03/09 09:18:07;;;;;;;8.18;6.13;;;;;;;35.65;8.32;100970.47;5039795;28;20061;-83
2022/03/09 09:20:35;;;;;;;7.05;5.82;;;;;;;35.61;7.07;100964.00;5038166;28;20049;-80
2022/03/09 09:23:04;;;;;;;7.35;5.55;;;;;;;34.14;7.77;100964.56;5041107;28;20056;-83
2022/03/09 09:25:32;;;;;;;7.00;5.85;;;;;;;35.09;8.42;100964.38;5040250;28;20049;-83
2022/03/09 09:28:00;;;;;;;6.22;5.43;;;;;;;35.04;7.18;100956.31;5037607;28;20053;-86
2022/03/09 09:30:30;;;;;;;7.90;5.38;;;;;;;35.57;7.46;100967.03;5037096;28;20041;-84
2022/03/09 09:32:58;;;;;;;6.22;5.63;;;;;;;35.88;7.13;100964.09;5038352;28;20060;-80
2022/03/09 09:35:26;;;;;;;6.32;5.72;;;;;;;36.37;7.69;100957.44;5040431;28;20065;-79
2022/03/09 09:37:54;;;;;;;6.25;5.53;;;;;;;35.77;6.94;100969.56;5042234;28;20053;-79
2022/03/09 09:40:24;;;;;;;6.55;5.20;;;;;;;36.36;6.98;100961.63;5036350;28;20064;-85
2022/03/09 09:42:51;;;;;;;5.18;4.68;;;;;;;34.99;6.43;100967.72;5026933;28;20053;-83
2022/03/09 09:45:19;;;;;;;5.72;5.15;;;;;;;34.66;6.33;100968.91;5036643;28;20053;-83
2022/03/09 09:47:48;;;;;;;5.90;5.30;;;;;;;33.62;6.55;100975.41;5039785;28;20056;-81
2022/03/09 09:50:17;;;;;;;5.22;4.63;;;;;;;33.06;7.01;100959.34;5037387;28;20053;-82
2022/03/09 09:52:45;;;;;;;;;;;;;;;33.15;6.81;100965.28;5038775;28;20053;-81
2022/03/09 09:55:12;;;;;;;5.28;4.78;;;;;;;32.22;7.60;100967.13;5036982;28;19921;-81
2022/03/09 09:57:40;;;;;;;6.35;5.20;;;;;;;32.07;7.09;100972.44;5040259;28;20046;-80
2022/03/09 10:00:08;;;;;;;6.82;5.63;;;;;;;31.81;7.53;100960.72;5038878;28;20057;-81
2022/03/09 10:02:37;;;;;;;;;;;;;;;30.71;7.53;100970.56;5038870;28;20045;-80
2022/03/09 10:05:06;;;;;;;8.50;5.25;;;;;;;31.07;7.51;100962.00;5037859;28;19986;-82
2022/03/09 10:07:35;;;;;;;5.22;4.72;;;;;;;32.07;6.86;100969.56;5037907;28;20058;-81
2022/03/09 10:10:03;;;;;;;6.28;4.88;;;;;;;30.78;7.30;100960.97;5033013;28;20052;-80
2022/03/09 10:12:30;;;;;;;7.13;5.63;;;;;;;30.99;8.07;100956.88;5038101;28;20395;-82
2022/03/09 10:15:00;;;;;;;5.55;5.05;;;;;;;30.23;8.25;100964.06;5034847;28;20509;-81
2022/03/09 10:17:29;;;;;;;7.30;5.25;;;;;;;30.93;7.87;100965.19;5028351;28;20050;-82
2022/03/09 10:20:00;;;;;;;7.38;5.20;;;;;;;31.29;7.78;100965.25;5030808;28;20049;-79
2022/03/09 10:22:31;;;;;;;7.38;4.93;;;;;;;32.92;7.36;100956.91;5019863;28;20517;-80
2022/03/09 10:25:00;;;;;;;5.97;5.38;;;;;;;33.67;6.83;100959.56;5027578;28;20053;-81
2022/03/09 10:27:39;;;;;;;6.20;5.15;;;;;;;34.34;6.44;100961.41;5027169;28;20046;-81
2022/03/09 10:30:09;;;;;;;4.93;4.53;;;;;;;34.54;6.48;100959.00;5027280;28;20056;-81
2022/03/09 10:32:52;;;;;;;4.93;4.50;;;;;;;32.71;6.79;100959.16;5031089;28;20046;-84
2022/03/09 10:35:38;;;;;;;6.00;5.40;;;;;;;33.34;6.62;100963.44;5044981;28;20060;-83
2022/03/09 10:38:25;;;;;;;5.63;5.13;;;;;;;33.87;6.28;100971.69;5028351;28;20062;-82
2022/03/09 10:40:55;;;;;;;5.18;4.78;;;;;;;33.52;6.60;100970.75;5024603;28;20049;-81
2022/03/09 10:43:25;;;;;;;5.93;4.85;;;;;;;34.17;6.60;100966.53;5039092;28;20072;-81
2022/03/09 10:46:04;;;;;;;5.28;4.68;;;;;;;34.51;5.71;100962.81;5036899;28;20053;-82
2022/03/09 10:48:50;;;;;;;6.85;4.85;;;;;;;33.45;6.02;100971.78;5038051;28;20064;-81
2022/03/09 10:51:33;;;;;;;5.70;4.82;;;;;;;31.98;6.77;100969.34;5041599;28;20060;-81
2022/03/09 10:54:05;;;;;;;6.18;5.55;;;;;;;32.21;7.01;100979.91;5042195;28;20048;-80
2022/03/09 10:56:33;;;;;;;5.60;5.07;;;;;;;31.12;7.56;100981.66;5024758;28;20076;-80
2022/03/09 10:59:12;;;;;;;7.82;5.18;;;;;;;31.26;7.11;100973.94;5027251;28;20060;-81
2022/03/09 11:01:40;;;;;;;5.18;4.68;;;;;;;32.05;6.81;100963.44;5009781;28;20058;-81
2022/03/09 11:04:27;;;;;;;5.90;5.30;;;;;;;31.28;6.93;100962.78;5006009;28;20069;-79
2022/03/09 11:06:57;;;;;;;5.40;4.90;;;;;;;31.87;6.90;100961.78;5012733;28;20467;-81
2022/03/09 11:09:26;;;;;;;5.13;4.68;;;;;;;32.23;6.63;100971.59;5019029;28;20049;-81
2022/03/09 11:11:53;;;;;;;5.10;4.60;;;;;;;32.86;6.77;100961.63;5017668;28;20070;-81
2022/03/09 11:14:25;;;;;;;5.30;4.80;;;;;;;32.49;6.78;100952.38;5017552;28;20045;-77
2022/03/09 11:16:57;;;;;;;6.13;4.90;;;;;;;33.12;6.55;100948.88;5007877;28;20096;-82
2022/03/09 11:19:25;;;;;;;5.20;4.70;;;;;;;33.71;6.62;100948.69;5011726;28;20042;-81
2022/03/09 11:21:52;;;;;;;5.22;4.75;;;;;;;34.23;5.51;100941.53;5003960;28;20046;-82
2022/03/09 11:24:20;;;;;;;5.10;4.60;;;;;;;33.41;6.23;100938.50;5008363;28;20057;-81
2022/03/09 11:26:57;;;;;;;6.07;4.68;;;;;;;33.61;6.13;100933.31;5013378;28;20414;-81
2022/03/09 11:29:33;;;;;;;5.70;4.70;;;;;;;34.90;5.96;100930.78;5015386;28;20054;-81
2022/03/09 11:32:02;;;;;;;5.18;4.68;;;;;;;34.29;6.19;100925.22;5008818;28;20053;-82
2022/03/09 11:34:41;;;;;;;5.72;4.13;;;;;;;34.86;5.46;100922.28;5018569;28;20062;-84